createdAt,value
2018-03-24T00:01:03.181Z,34.90
2018-03-24T00:03:31.433Z,33.95
2018-03-24T00:05:59.697Z,36.40
2018-03-24T00:08:27.953Z,31.08
2018-03-24T00:10:56.207Z,32.38
2018-03-24T00:13:24.454Z,32.95
2018-03-24T00:15:53.483Z,34.42
2018-03-24T00:18:21.737Z,32.45
2018-03-24T00:20:50.798Z,33.27
2018-03-24T00:23:19.049Z,29.87
2018-03-24T00:25:47.310Z,29.15
2018-03-24T00:28:15.558Z,32.13
2018-03-24T00:30:43.812Z,30.90
2018-03-24T00:33:12.830Z,31.67
2018-03-24T00:35:41.098Z,30.30
2018-03-24T00:38:10.109Z,32.05
2018-03-24T00:40:38.354Z,32.70
2018-03-24T00:43:07.380Z,32.97
2018-03-24T00:45:35.625Z,30.90
2018-03-24T00:48:04.647Z,29.60
2018-03-24T00:50:32.889Z,31.73
2018-03-24T00:53:01.910Z,35.00
2018-03-24T00:55:30.161Z,33.78
2018-03-24T00:57:59.181Z,33.50
2018-03-24T01:00:27.435Z,32.40
2018-03-24T01:02:56.465Z,34.88
2018-03-24T01:05:24.709Z,29.35
2018-03-24T01:07:52.970Z,31.70
2018-03-24T01:10:21.978Z,30.65
2018-03-24T01:12:50.229Z,29.27
2018-03-24T01:15:19.246Z,31.02
2018-03-24T01:17:47.502Z,32.70
2018-03-24T01:20:16.520Z,33.20
2018-03-24T01:22:44.798Z,32.10
2018-03-24T01:25:13.052Z,32.10
2018-03-24T01:27:42.070Z,33.67
2018-03-24T01:30:10.333Z,34.05
2018-03-24T01:32:38.589Z,32.97
2018-03-24T01:35:07.616Z,31.73
2018-03-24T01:37:35.865Z,32.97
2018-03-24T01:40:04.890Z,33.30
2018-03-24T01:42:33.138Z,35.33
2018-03-24T01:45:02.175Z,29.20
2018-03-24T01:47:30.430Z,32.60
2018-03-24T01:49:58.689Z,31.05
2018-03-24T01:52:26.942Z,32.83
2018-03-24T01:54:55.969Z,33.30
2018-03-24T01:57:24.225Z,33.37
2018-03-24T01:59:53.241Z,31.00
2018-03-24T02:02:21.494Z,29.92
2018-03-24T02:04:50.509Z,33.17
2018-03-24T02:07:18.762Z,32.30
2018-03-24T02:09:47.791Z,30.65
2018-03-24T02:12:16.038Z,32.15
2018-03-24T02:14:45.063Z,33.17
2018-03-24T02:17:13.322Z,31.05
2018-03-24T02:19:41.564Z,31.65
2018-03-24T02:22:10.590Z,31.90
2018-03-24T02:24:44.270Z,29.65
2018-03-24T02:27:13.297Z,34.60
2018-03-24T02:29:41.546Z,32.45
2018-03-24T02:32:10.572Z,35.27
2018-03-24T02:34:38.810Z,33.27
2018-03-24T02:37:07.839Z,34.20
2018-03-24T02:39:36.085Z,33.40
2018-03-24T02:42:05.102Z,32.47
2018-03-24T02:44:33.353Z,37.15
2018-03-24T02:47:01.625Z,33.75
2018-03-24T02:49:30.639Z,34.70
2018-03-24T02:51:58.900Z,32.97
2018-03-24T02:54:27.906Z,33.30
2018-03-24T02:56:56.166Z,31.87
2018-03-24T02:59:25.186Z,29.80
2018-03-24T03:01:53.449Z,31.75
2018-03-24T03:04:21.698Z,33.72
2018-03-24T03:06:49.981Z,31.35
2018-03-24T03:09:18.991Z,33.87
2018-03-24T03:11:47.243Z,34.50
2018-03-24T03:14:16.266Z,34.33
2018-03-24T03:16:44.517Z,34.97
2018-03-24T03:19:13.533Z,33.95
2018-03-24T03:21:53.685Z,35.40
2018-03-24T03:24:21.944Z,37.60
2018-03-24T03:26:50.958Z,36.75
2018-03-24T03:29:19.216Z,38.53
2018-03-24T03:34:47.746Z,40.45
2018-03-24T03:37:16.002Z,40.63
2018-03-24T03:39:44.256Z,41.47
2018-03-24T03:42:13.281Z,43.97
2018-03-24T03:44:41.534Z,46.15
2018-03-24T03:47:10.550Z,46.55
2018-03-24T03:49:38.810Z,39.88
2018-03-24T03:52:07.061Z,47.58
2018-03-24T03:54:36.085Z,46.15
2018-03-24T03:57:04.336Z,47.85
2018-03-24T03:59:33.354Z,47.17
2018-03-24T04:02:01.610Z,47.22
2018-03-24T04:04:30.625Z,46.30
2018-03-24T04:06:58.881Z,48.08
2018-03-24T04:09:27.902Z,50.50
2018-03-24T04:11:56.153Z,54.38
2018-03-24T04:14:25.197Z,56.72
2018-03-24T04:16:53.427Z,54.58
2018-03-24T04:19:21.677Z,59.35
2018-03-24T04:21:49.985Z,62.38
2018-03-24T04:24:19.005Z,59.92
2018-03-24T04:26:47.261Z,66.05
2018-03-24T04:29:15.498Z,66.07
2018-03-24T04:31:44.524Z,63.22
2018-03-24T04:34:12.777Z,72.05
2018-03-24T04:36:41.807Z,70.55
2018-03-24T04:39:10.053Z,65.35
2018-03-24T04:41:39.077Z,67.05
2018-03-24T04:44:07.337Z,66.37
2018-03-24T04:46:35.586Z,73.93
2018-03-24T04:49:04.598Z,67.35
2018-03-24T04:51:32.856Z,74.78
2018-03-24T04:54:01.879Z,71.00
2018-03-24T04:56:30.129Z,77.03
2018-03-24T04:58:59.146Z,80.75
2018-03-24T05:01:27.393Z,77.50
2018-03-24T05:03:56.442Z,76.22
2018-03-24T05:06:24.669Z,80.32
2018-03-24T05:08:53.686Z,78.97
2018-03-24T05:11:21.942Z,78.70
2018-03-24T05:13:50.962Z,81.85
2018-03-24T05:16:19.211Z,83.03
2018-03-24T05:18:48.226Z,79.75
2018-03-24T05:21:16.481Z,80.60
2018-03-24T05:23:45.497Z,81.72
2018-03-24T05:26:13.766Z,75.07
2018-03-24T05:28:42.770Z,77.72
2018-03-24T05:31:11.027Z,79.72
2018-03-24T05:33:39.281Z,85.95
2018-03-24T05:36:07.536Z,82.68
2018-03-24T05:38:35.785Z,80.55
2018-03-24T05:41:04.049Z,81.93
2018-03-24T05:43:32.298Z,78.75
2018-03-24T05:46:00.540Z,82.22
2018-03-24T05:48:28.822Z,78.07
2018-03-24T05:50:57.052Z,83.55
2018-03-24T05:53:25.302Z,77.68
2018-03-24T05:55:53.550Z,81.72
2018-03-24T05:58:21.811Z,75.82
2018-03-24T06:00:50.060Z,78.87
2018-03-24T06:03:18.316Z,82.45
2018-03-24T06:05:46.563Z,85.00
2018-03-24T06:08:15.596Z,80.85
2018-03-24T06:10:43.846Z,83.15
2018-03-24T06:13:12.105Z,81.35
2018-03-24T06:15:41.118Z,79.90
2018-03-24T06:18:09.373Z,78.28
2018-03-24T06:20:38.395Z,77.87
2018-03-24T06:23:06.646Z,84.68
2018-03-24T06:25:35.662Z,76.87
2018-03-24T06:28:03.917Z,73.18
2018-03-24T06:30:45.610Z,72.65
2018-03-24T06:33:14.633Z,73.57
2018-03-24T06:35:42.881Z,75.78
2018-03-24T06:38:11.902Z,76.90
2018-03-24T06:40:40.162Z,75.18
2018-03-24T06:43:08.422Z,69.22
2018-03-24T06:45:37.437Z,74.43
2018-03-24T06:48:05.697Z,65.28
2018-03-24T06:50:33.946Z,67.12
2018-03-24T06:53:02.206Z,66.03
2018-03-24T06:55:30.462Z,62.55
2018-03-24T06:57:58.724Z,64.90
2018-03-24T07:00:26.975Z,59.60
2018-03-24T07:02:55.232Z,57.28
2018-03-24T07:05:23.488Z,52.80
2018-03-24T07:07:51.738Z,46.00
2018-03-24T07:10:20.000Z,44.60
2018-03-24T07:12:48.245Z,42.53
2018-03-24T07:15:17.263Z,36.08
2018-03-24T07:17:45.512Z,35.50
2018-03-24T07:20:14.530Z,31.35
2018-03-24T07:22:42.782Z,27.45
2018-03-24T07:25:11.807Z,26.20
2018-03-24T07:27:40.057Z,27.05
2018-03-24T07:30:08.333Z,26.00
2018-03-24T07:32:37.340Z,24.80
2018-03-24T07:35:05.590Z,24.48
2018-03-24T07:37:34.597Z,24.08
2018-03-24T07:40:02.868Z,24.83
2018-03-24T07:42:31.877Z,23.00
2018-03-24T07:45:00.138Z,21.30
2018-03-24T07:47:28.387Z,24.50
2018-03-24T07:49:56.650Z,24.37
2018-03-24T07:52:24.899Z,21.50
2018-03-24T07:54:53.164Z,23.75
2018-03-24T07:57:21.409Z,23.33
2018-03-24T07:59:50.422Z,25.05
2018-03-24T08:02:18.681Z,23.50
2018-03-24T08:04:47.697Z,24.55
2018-03-24T08:07:15.952Z,22.48
2018-03-24T08:09:44.205Z,24.90
2018-03-24T08:12:13.227Z,25.90
2018-03-24T08:14:41.472Z,22.77
2018-03-24T08:17:10.497Z,21.08
2018-03-24T08:19:38.750Z,21.80
2018-03-24T08:22:07.779Z,25.57
2018-03-24T08:24:36.030Z,23.33
2018-03-24T08:27:05.047Z,22.57
2018-03-24T08:29:33.294Z,20.93
2018-03-24T08:32:02.319Z,21.80
2018-03-24T08:34:30.566Z,21.90
2018-03-24T08:36:59.580Z,23.20
2018-03-24T08:39:27.836Z,22.30
2018-03-24T08:41:56.845Z,23.50
2018-03-24T08:44:25.088Z,23.43
2018-03-24T08:46:53.338Z,21.83
2018-03-24T08:49:21.581Z,20.77
2018-03-24T08:51:49.834Z,20.00
2018-03-24T08:54:18.846Z,21.30
2018-03-24T08:56:47.109Z,21.83
2018-03-24T08:59:16.115Z,21.70
2018-03-24T09:01:44.376Z,20.27
2018-03-24T09:04:13.382Z,19.30
2018-03-24T09:06:41.646Z,21.03
2018-03-24T09:09:09.894Z,21.70
2018-03-24T09:11:38.139Z,24.03
2018-03-24T09:14:06.396Z,23.80
2018-03-24T09:16:34.642Z,18.67
2018-03-24T09:19:03.664Z,25.83
2018-03-24T09:21:31.902Z,20.90
2018-03-24T09:24:00.917Z,20.43
2018-03-24T09:26:29.162Z,19.03
2018-03-24T09:28:58.183Z,21.40
2018-03-24T09:31:26.422Z,20.13
2018-03-24T09:33:54.675Z,19.03
2018-03-24T09:36:22.913Z,21.20
2018-03-24T09:38:51.166Z,20.43
2018-03-24T09:41:20.186Z,18.10
2018-03-24T09:43:48.441Z,17.60
2018-03-24T09:46:17.449Z,15.37
2018-03-24T09:48:45.690Z,14.20
2018-03-24T09:51:13.929Z,17.80
2018-03-24T09:53:42.178Z,13.73
2018-03-24T09:56:10.426Z,13.23
2018-03-24T09:58:39.442Z,13.33
2018-03-24T10:01:07.690Z,13.47
2018-03-24T10:03:36.726Z,16.63
2018-03-24T10:06:04.956Z,14.90
2018-03-24T10:08:33.977Z,13.77
2018-03-24T10:11:02.285Z,12.67
2018-03-24T10:13:31.242Z,15.40
2018-03-24T10:16:00.249Z,14.03
2018-03-24T10:18:28.494Z,15.13
2018-03-24T10:24:27.637Z,16.70
2018-03-24T10:26:55.881Z,14.43
2018-03-24T10:29:24.906Z,18.73
2018-03-24T10:31:53.153Z,16.80
2018-03-24T10:34:22.171Z,14.60
2018-03-24T10:36:50.413Z,12.07
2018-03-24T10:39:19.428Z,15.37
2018-03-24T10:41:48.448Z,15.33
2018-03-24T10:44:16.685Z,14.63
2018-03-24T10:46:45.708Z,15.00
2018-03-24T10:49:13.955Z,12.90
2018-03-24T10:51:42.973Z,11.63
2018-03-24T10:54:11.214Z,13.50
2018-03-24T10:56:40.246Z,13.70
2018-03-24T10:59:08.499Z,12.10
2018-03-24T11:01:38.250Z,13.27
2018-03-24T11:04:06.508Z,14.17
2018-03-24T11:06:34.754Z,14.40
2018-03-24T11:09:03.874Z,12.80
2018-03-24T11:11:32.156Z,13.27
2018-03-24T11:14:00.436Z,12.53
2018-03-24T11:16:28.690Z,12.10
2018-03-24T11:18:56.955Z,8.90
2018-03-24T11:21:25.979Z,10.60
2018-03-24T11:23:54.271Z,12.47
2018-03-24T11:26:22.529Z,9.93
2018-03-24T11:28:50.799Z,10.30
2018-03-24T11:31:19.053Z,9.70
2018-03-24T11:33:48.074Z,8.97
2018-03-24T11:36:16.316Z,9.07
2018-03-24T11:38:45.331Z,10.83
2018-03-24T11:41:13.568Z,9.90
2018-03-24T11:43:41.815Z,10.73
2018-03-24T11:46:10.062Z,9.77
2018-03-24T11:48:38.318Z,11.70
2018-03-24T11:51:07.336Z,11.30
2018-03-24T11:53:47.350Z,11.20
2018-03-24T11:56:15.638Z,13.20
2018-03-24T11:58:43.857Z,13.70
2018-03-24T12:01:12.100Z,11.97
2018-03-24T12:03:40.361Z,12.57
2018-03-24T12:06:09.377Z,13.30
2018-03-24T12:08:37.629Z,11.60
2018-03-24T12:11:06.647Z,13.70
2018-03-24T12:13:34.901Z,15.43
2018-03-24T12:16:03.905Z,14.33
2018-03-24T12:18:32.165Z,15.43
2018-03-24T12:21:01.174Z,15.43
2018-03-24T12:23:29.419Z,18.27
2018-03-24T12:25:57.665Z,16.70
2018-03-24T12:28:25.917Z,14.90
2018-03-24T12:30:54.164Z,13.33
2018-03-24T12:33:23.172Z,13.63
2018-03-24T12:35:51.502Z,13.70
2018-03-24T12:38:19.753Z,15.43
2018-03-24T12:40:47.999Z,14.77
2018-03-24T12:43:16.244Z,16.33
2018-03-24T12:45:44.493Z,16.60
2018-03-24T12:48:12.743Z,14.60
2018-03-24T12:50:40.987Z,15.40
2018-03-24T12:53:10.003Z,15.40
2018-03-24T12:55:38.251Z,14.40
2018-03-24T12:58:07.261Z,12.53
2018-03-24T13:00:35.514Z,15.07
2018-03-24T13:03:04.524Z,15.00
2018-03-24T13:05:32.783Z,16.43
2018-03-24T13:08:01.789Z,14.40
2018-03-24T13:10:30.043Z,15.07
2018-03-24T13:12:58.295Z,14.23
2018-03-24T13:15:26.554Z,15.70
2018-03-24T13:17:54.797Z,13.43
2018-03-24T13:20:23.093Z,13.57
2018-03-24T13:22:51.337Z,16.40
2018-03-24T13:25:20.360Z,13.27
2018-03-24T13:27:48.675Z,14.90
2018-03-24T13:30:16.923Z,14.30
2018-03-24T13:32:45.174Z,13.37
2018-03-24T13:35:13.424Z,14.90
2018-03-24T13:37:42.452Z,14.43
2018-03-24T13:40:10.691Z,15.33
2018-03-24T13:42:39.709Z,15.10
2018-03-24T13:45:07.950Z,14.70
2018-03-24T13:47:36.198Z,13.27
2018-03-24T13:50:04.440Z,15.13
2018-03-24T13:52:32.691Z,13.70
2018-03-24T13:55:01.715Z,13.00
2018-03-24T13:57:29.973Z,13.70
2018-03-24T13:59:58.212Z,11.50
2018-03-24T14:02:26.464Z,13.90
2018-03-24T14:04:54.707Z,11.93
2018-03-24T14:07:22.958Z,14.20
2018-03-24T14:09:51.974Z,11.87
2018-03-24T14:12:20.226Z,12.23
2018-03-24T14:14:49.238Z,12.30
2018-03-24T14:17:17.493Z,11.17
2018-03-24T14:19:46.505Z,14.13
2018-03-24T14:22:14.766Z,12.20
2018-03-24T14:24:43.777Z,10.97
2018-03-24T14:27:12.058Z,11.97
2018-03-24T14:29:40.306Z,12.80
2018-03-24T14:32:09.326Z,11.67
2018-03-24T14:34:37.589Z,11.90
2018-03-24T14:37:06.593Z,12.37
2018-03-24T14:39:34.846Z,11.47
2018-03-24T14:42:03.861Z,12.10
2018-03-24T14:44:32.114Z,12.23
2018-03-24T14:47:01.130Z,11.17
2018-03-24T14:49:29.385Z,12.07
2018-03-24T14:51:58.389Z,12.60
2018-03-24T14:54:26.663Z,13.03
2018-03-24T14:56:55.662Z,13.80
2018-03-24T14:59:23.922Z,14.10
2018-03-24T15:01:52.937Z,13.13
2018-03-24T15:04:21.196Z,13.27
2018-03-24T15:06:50.209Z,14.10
2018-03-24T15:09:18.471Z,13.40
2018-03-24T15:11:46.718Z,13.47
2018-03-24T15:14:14.974Z,11.53
2018-03-24T15:16:43.227Z,12.77
2018-03-24T15:19:11.490Z,13.10
2018-03-24T15:21:39.736Z,13.13
2018-03-24T15:24:09.019Z,13.70
2018-03-24T15:26:37.270Z,12.77
2018-03-24T15:29:23.266Z,12.53
2018-03-24T15:32:09.270Z,13.70
2018-03-24T15:34:55.401Z,12.80
2018-03-24T15:37:23.649Z,13.60
2018-03-24T15:39:52.674Z,13.53
2018-03-24T15:42:20.916Z,13.50
2018-03-24T15:44:49.943Z,12.60
2018-03-24T15:47:18.194Z,12.77
2018-03-24T15:49:47.216Z,14.03
2018-03-24T15:52:15.461Z,12.37
2018-03-24T15:54:44.492Z,12.57
2018-03-24T15:57:12.736Z,13.60
2018-03-24T15:59:41.759Z,13.43
2018-03-24T16:02:10.006Z,15.00
2018-03-24T16:04:39.021Z,14.53
2018-03-24T16:07:07.273Z,12.53
2018-03-24T16:09:36.293Z,12.90
2018-03-24T16:12:04.545Z,13.30
2018-03-24T16:14:33.563Z,12.60
2018-03-24T16:17:01.813Z,14.50
2018-03-24T16:19:30.834Z,16.00
2018-03-24T16:21:59.089Z,13.63
2018-03-24T16:24:28.102Z,12.97
2018-03-24T16:26:56.362Z,12.97
2018-03-24T16:29:25.375Z,14.20
2018-03-24T16:31:53.642Z,13.03
2018-03-24T16:34:21.898Z,13.20
2018-03-24T16:36:50.914Z,13.73
2018-03-24T16:39:19.177Z,11.93
2018-03-24T16:41:48.177Z,14.00
2018-03-24T16:44:16.422Z,12.90
2018-03-24T16:46:45.438Z,11.77
2018-03-24T16:49:13.687Z,12.43
2018-03-24T16:51:41.968Z,14.00
2018-03-24T16:54:10.974Z,12.40
2018-03-24T16:56:39.982Z,12.27
2018-03-24T16:59:08.229Z,13.60
2018-03-24T17:01:37.238Z,12.40
2018-03-24T17:04:05.486Z,12.67
2018-03-24T17:06:33.729Z,13.23
2018-03-24T17:09:01.990Z,15.10
2018-03-24T17:11:30.231Z,12.20
2018-03-24T17:13:59.253Z,12.30
2018-03-24T17:16:27.493Z,16.40
2018-03-24T17:18:55.739Z,15.37
2018-03-24T17:21:23.979Z,13.27
2018-03-24T17:23:52.221Z,13.87
2018-03-24T17:26:21.237Z,12.87
2018-03-24T17:28:49.484Z,13.17
2018-03-24T17:31:18.500Z,11.20
2018-03-24T17:33:46.745Z,13.40
2018-03-24T17:36:15.001Z,11.90
2018-03-24T17:38:43.272Z,12.00
2018-03-24T17:41:11.514Z,13.00
2018-03-24T17:43:39.773Z,11.97
2018-03-24T17:46:08.020Z,12.90
2018-03-24T17:48:36.277Z,11.70
2018-03-24T17:51:04.518Z,13.27
2018-03-24T17:53:32.754Z,11.70
2018-03-24T17:56:01.853Z,12.40
2018-03-24T17:58:30.862Z,13.50
2018-03-24T18:00:59.106Z,13.27
2018-03-24T18:03:27.353Z,12.80
2018-03-24T18:05:55.601Z,12.57
2018-03-24T18:08:23.848Z,14.20
2018-03-24T18:10:52.869Z,12.90
2018-03-24T18:13:21.148Z,12.13
2018-03-24T18:15:50.134Z,13.03
2018-03-24T18:18:18.372Z,12.77
2018-03-24T18:20:46.629Z,11.27
2018-03-24T18:23:14.880Z,11.30
2018-03-24T18:25:43.129Z,9.67
2018-03-24T18:28:11.389Z,12.20
2018-03-24T18:30:39.631Z,11.47
2018-03-24T18:33:07.874Z,12.87
2018-03-24T18:35:36.128Z,12.10
2018-03-24T18:38:04.375Z,12.40
2018-03-24T18:40:32.629Z,12.83
2018-03-24T18:43:00.875Z,13.63
2018-03-24T18:45:29.124Z,13.70
2018-03-24T18:47:58.138Z,13.43
2018-03-24T18:50:26.386Z,13.40
2018-03-24T18:52:55.402Z,13.00
2018-03-24T18:55:23.641Z,12.33
2018-03-24T18:57:52.661Z,13.53
2018-03-24T19:00:20.949Z,10.63
2018-03-24T19:02:49.938Z,9.73
2018-03-24T19:05:18.190Z,10.30
2018-03-24T19:07:47.206Z,18.40
2018-03-24T19:10:15.462Z,15.50
2018-03-24T19:12:44.479Z,12.63
2018-03-24T19:15:12.722Z,13.83
2018-03-24T19:17:41.740Z,11.43
2018-03-24T19:20:10.020Z,12.60
2018-03-24T19:22:38.280Z,12.00
2018-03-24T19:25:07.296Z,11.10
2018-03-24T19:27:35.546Z,13.10
2018-03-24T19:30:04.563Z,12.10
2018-03-24T19:32:32.822Z,12.50
2018-03-24T19:35:01.082Z,12.23
2018-03-24T19:37:29.353Z,12.27
2018-03-24T19:39:57.586Z,10.27
2018-03-24T19:42:25.825Z,11.83
2018-03-24T19:44:54.082Z,13.40
2018-03-24T19:47:23.093Z,11.90
2018-03-24T19:49:51.342Z,11.83
2018-03-24T19:52:20.703Z,11.52
2018-03-24T19:54:48.958Z,12.80
2018-03-24T19:57:17.201Z,12.53
2018-03-24T19:59:46.221Z,14.18
2018-03-24T20:02:14.472Z,13.60
2018-03-24T20:04:43.503Z,14.80
2018-03-24T20:07:11.742Z,14.53
2018-03-24T20:09:40.766Z,16.73
2018-03-24T20:12:09.081Z,17.25
2018-03-24T20:14:37.277Z,19.62
2018-03-24T20:17:05.526Z,20.73
2018-03-24T20:19:33.777Z,20.00
2018-03-24T20:22:02.022Z,19.13
2018-03-24T20:24:30.278Z,18.40
2018-03-24T20:26:58.525Z,18.47
2018-03-24T20:29:26.785Z,19.52
2018-03-24T20:31:55.036Z,17.50
2018-03-24T20:34:23.301Z,15.32
2018-03-24T20:36:51.556Z,16.48
2018-03-24T20:39:19.794Z,16.90
2018-03-24T20:41:48.054Z,18.20
2018-03-24T20:44:16.300Z,16.85
2018-03-24T20:46:44.560Z,16.53
2018-03-24T20:49:12.803Z,18.40
2018-03-24T20:51:41.062Z,16.30
2018-03-24T20:54:09.312Z,17.43
2018-03-24T20:56:38.287Z,17.53
2018-03-24T20:59:06.591Z,18.35
2018-03-24T21:01:34.846Z,17.20
2018-03-24T21:04:03.998Z,18.43
2018-03-24T21:06:32.347Z,16.60
2018-03-24T21:09:00.620Z,14.90
2018-03-24T21:11:28.874Z,17.55
2018-03-24T21:13:57.126Z,16.60
2018-03-24T21:16:26.150Z,20.60
2018-03-24T21:18:54.401Z,19.05
2018-03-24T21:21:23.436Z,20.15
2018-03-24T21:23:51.699Z,19.98
2018-03-24T21:26:19.974Z,18.58
2018-03-24T21:28:48.226Z,18.33
2018-03-24T21:31:17.246Z,19.15
2018-03-24T21:33:45.503Z,19.15
2018-03-24T21:36:14.526Z,18.65
2018-03-24T21:38:42.782Z,20.85
2018-03-24T21:41:11.795Z,20.65
2018-03-24T21:43:40.058Z,19.60
2018-03-24T21:46:08.310Z,19.42
2018-03-24T21:48:37.338Z,20.97
2018-03-24T21:51:05.594Z,20.90
2018-03-24T21:53:33.859Z,21.83
2018-03-24T21:56:03.157Z,18.75
2018-03-24T21:58:32.182Z,20.73
2018-03-24T22:01:05.735Z,17.87
2018-03-24T22:03:30.491Z,18.40
2018-03-24T22:05:58.733Z,18.08
2018-03-24T22:08:27.763Z,19.80
2018-03-24T22:10:56.014Z,17.25
2018-03-24T22:13:24.266Z,18.67
2018-03-24T22:15:53.280Z,18.40
2018-03-24T22:18:21.546Z,20.25
2018-03-24T22:20:50.563Z,19.40
2018-03-24T22:23:18.821Z,19.90
2018-03-24T22:25:47.878Z,18.98
2018-03-24T22:28:16.129Z,18.42
2018-03-24T22:30:44.386Z,18.45
2018-03-24T22:33:12.650Z,18.17
2018-03-24T22:35:41.664Z,20.20
2018-03-24T22:38:10.035Z,18.15
2018-03-24T22:40:38.282Z,20.37
2018-03-24T22:43:07.357Z,17.85
2018-03-24T22:45:35.548Z,18.02
2018-03-24T22:48:04.601Z,18.52
2018-03-24T22:50:32.849Z,20.27
2018-03-24T22:53:01.117Z,19.35
2018-03-24T22:55:29.418Z,18.50
2018-03-24T22:57:57.753Z,20.75
2018-03-24T23:00:26.765Z,20.15
2018-03-24T23:02:55.013Z,22.62
2018-03-24T23:05:24.149Z,22.52
2018-03-24T23:07:52.391Z,22.15
2018-03-24T23:10:21.422Z,22.27
2018-03-24T23:12:49.667Z,24.35
2018-03-24T23:15:18.686Z,23.67
2018-03-24T23:17:46.932Z,24.27
2018-03-24T23:20:15.954Z,24.25
2018-03-24T23:22:44.243Z,26.87
2018-03-24T23:25:12.498Z,27.70
2018-03-24T23:27:40.751Z,24.95
2018-03-24T23:30:09.793Z,28.25
2018-03-24T23:32:38.153Z,28.02
2018-03-24T23:35:06.438Z,24.65
2018-03-24T23:37:34.692Z,24.58
2018-03-24T23:40:02.944Z,27.60
2018-03-24T23:42:32.050Z,31.08
2018-03-24T23:45:01.161Z,31.77
2018-03-24T23:47:29.431Z,24.67
2018-03-24T23:49:57.685Z,27.80
2018-03-24T23:52:26.696Z,23.83
2018-03-24T23:54:54.969Z,24.48
2018-03-24T23:57:23.988Z,20.80
2018-03-24T23:59:52.230Z,22.67
